createdAt,value
2022-11-10T00:09:22.777Z,4
2022-11-10T00:19:23.884Z,4
2022-11-10T00:29:25.009Z,1
2022-11-10T00:39:26.143Z,4
2022-11-10T00:49:27.282Z,4
2022-11-10T00:59:28.512Z,5
2022-11-10T01:09:29.643Z,4
2022-11-10T01:19:31.027Z,5
2022-11-10T01:29:32.271Z,4
2022-11-10T01:39:33.424Z,1
2022-11-10T01:49:34.581Z,4
2022-11-10T01:59:35.682Z,3
2022-11-10T02:09:36.818Z,2
2022-11-10T02:19:37.934Z,3
2022-11-10T02:29:39.070Z,2
2022-11-10T02:39:40.222Z,2
2022-11-10T02:49:41.556Z,3
2022-11-10T02:59:42.694Z,1
2022-11-10T03:09:43.833Z,7
2022-11-10T03:19:44.985Z,3
2022-11-10T03:29:46.165Z,2
2022-11-10T03:39:47.276Z,4
2022-11-10T03:49:48.435Z,3
2022-11-10T03:59:49.549Z,2
2022-11-10T04:09:51.015Z,3
2022-11-10T04:19:52.190Z,5
2022-11-10T04:29:53.347Z,4
2022-11-10T04:39:54.461Z,2
2022-11-10T04:49:55.606Z,3
2022-11-10T04:59:56.733Z,6
2022-11-10T05:09:57.851Z,4
2022-11-10T05:19:58.957Z,4
2022-11-10T05:30:00.137Z,4
2022-11-10T05:40:01.502Z,5
2022-11-10T05:50:03.142Z,5
2022-11-10T06:00:04.803Z,4
2022-11-10T06:10:06.567Z,3
2022-11-10T06:20:08.216Z,3
2022-11-10T06:30:09.688Z,4
2022-11-10T06:40:11.116Z,3
2022-11-10T06:50:12.378Z,2
2022-11-10T07:00:13.496Z,1
2022-11-10T07:10:14.849Z,2
2022-11-10T07:20:15.985Z,2
2022-11-10T07:30:17.095Z,3
2022-11-10T07:40:18.206Z,4
2022-11-10T07:50:19.356Z,4
2022-11-10T08:00:20.754Z,4
2022-11-10T08:10:21.914Z,1
2022-11-10T08:20:23.034Z,0
2022-11-10T08:30:24.187Z,1
2022-11-10T08:40:25.444Z,3
2022-11-10T08:50:26.612Z,1
2022-11-10T09:00:27.780Z,2
2022-11-10T09:10:29.015Z,0
2022-11-10T09:20:30.302Z,1
2022-11-10T09:30:31.636Z,3
2022-11-10T09:40:32.779Z,1
2022-11-10T09:50:33.999Z,3
2022-11-10T10:00:35.123Z,2
2022-11-10T10:10:36.279Z,2
2022-11-10T10:20:37.649Z,1
2022-11-10T10:30:38.761Z,3
2022-11-10T10:40:39.882Z,2
2022-11-10T10:50:41.217Z,2
2022-11-10T11:00:42.364Z,2
2022-11-10T11:10:43.487Z,2
2022-11-10T11:20:44.619Z,2
2022-11-10T11:30:45.753Z,2
2022-11-10T11:40:46.780Z,1
2022-11-10T11:50:47.901Z,1
2022-11-10T12:00:49.033Z,2
2022-11-10T12:10:50.179Z,1
2022-11-10T12:20:51.523Z,2
2022-11-10T12:30:56.399Z,3
2022-11-10T12:41:00.286Z,1
2022-11-10T12:51:01.625Z,1
2022-11-10T13:01:03.406Z,1
2022-11-10T13:11:05.146Z,0
2022-11-10T13:21:06.787Z,1
2022-11-10T13:31:08.577Z,1
2022-11-10T13:41:10.064Z,1
2022-11-10T13:51:11.586Z,0
2022-11-10T14:01:12.820Z,0
2022-11-10T14:11:14.015Z,1
2022-11-10T14:21:15.163Z,1
2022-11-10T14:31:16.297Z,1
2022-11-10T14:41:17.415Z,1
2022-11-10T14:51:18.587Z,0
2022-11-10T15:01:19.849Z,1
2022-11-10T15:11:21.193Z,1
2022-11-10T15:21:22.520Z,0
2022-11-10T15:31:23.671Z,1
2022-11-10T15:41:27.472Z,0
2022-11-10T15:51:28.968Z,0
2022-11-10T16:01:30.247Z,1
2022-11-10T16:11:31.579Z,0
2022-11-10T16:21:32.755Z,1
2022-11-10T16:31:33.901Z,1
2022-11-10T16:41:35.021Z,0
2022-11-10T16:51:36.152Z,0
2022-11-10T17:01:37.349Z,1
2022-11-10T17:11:38.510Z,0
2022-11-10T17:21:39.638Z,1
2022-11-10T17:31:40.979Z,1
2022-11-10T17:41:42.107Z,1
2022-11-10T17:51:43.237Z,4
2022-11-10T18:01:44.544Z,1
2022-11-10T18:11:45.718Z,2
2022-11-10T18:21:46.804Z,5
2022-11-10T18:31:47.949Z,8
2022-11-10T18:41:49.139Z,5
2022-11-10T18:51:50.405Z,2
2022-11-10T19:01:51.656Z,5
2022-11-10T19:11:52.785Z,4
2022-11-10T19:21:53.926Z,2
2022-11-10T19:31:55.080Z,3
2022-11-10T19:41:56.231Z,5
2022-11-10T19:51:57.714Z,3
2022-11-10T20:01:58.954Z,4
2022-11-10T20:12:00.072Z,4
2022-11-10T20:22:01.452Z,3
2022-11-10T20:32:03.041Z,4
2022-11-10T20:42:04.676Z,3
2022-11-10T20:52:06.406Z,5
2022-11-10T21:02:08.626Z,4
2022-11-10T21:12:10.186Z,5
2022-11-10T21:22:11.738Z,7
2022-11-10T21:32:12.889Z,4
2022-11-10T21:42:14.381Z,7
2022-11-10T21:52:15.756Z,7
2022-11-10T22:02:16.854Z,4
2022-11-10T22:12:17.973Z,6
2022-11-10T22:22:19.405Z,6
2022-11-10T22:32:20.772Z,7
2022-11-10T22:42:21.904Z,7
2022-11-10T22:52:23.042Z,9
2022-11-10T23:02:24.159Z,7
2022-11-10T23:12:25.243Z,4
2022-11-10T23:22:26.362Z,6
2022-11-10T23:32:27.488Z,7
2022-11-10T23:42:29.844Z,5
2022-11-10T23:52:33.406Z,4
